sensor_id;sensor_type;location;lat;lon;timestamp;P1;durP1;ratioP1;P2;durP2;ratioP2
4106;SDS011;21906;50.812;7.132;2023-12-29T00:00:38;1.93;;;1.60;;
4106;SDS011;21906;50.812;7.132;2023-12-29T00:03:04;1.30;;;1.20;;
4106;SDS011;21906;50.812;7.132;2023-12-29T00:05:30;1.37;;;1.27;;
4106;SDS011;21906;50.812;7.132;2023-12-29T00:07:56;1.30;;;1.20;;
4106;SDS011;21906;50.812;7.132;2023-12-29T00:10:21;1.43;;;1.30;;
4106;SDS011;21906;50.812;7.132;2023-12-29T00:12:47;2.03;;;1.27;;
4106;SDS011;21906;50.812;7.132;2023-12-29T00:15:16;1.60;;;1.50;;
4106;SDS011;21906;50.812;7.132;2023-12-29T00:17:43;1.80;;;1.33;;
4106;SDS011;21906;50.812;7.132;2023-12-29T00:20:09;2.00;;;1.53;;
4106;SDS011;21906;50.812;7.132;2023-12-29T00:22:35;1.40;;;1.30;;
4106;SDS011;21906;50.812;7.132;2023-12-29T00:25:01;2.53;;;1.30;;
4106;SDS011;21906;50.812;7.132;2023-12-29T00:27:28;2.17;;;1.43;;
4106;SDS011;21906;50.812;7.132;2023-12-29T00:29:53;2.77;;;1.50;;
4106;SDS011;21906;50.812;7.132;2023-12-29T00:32:19;3.73;;;1.30;;
4106;SDS011;21906;50.812;7.132;2023-12-29T00:34:45;2.17;;;1.40;;
4106;SDS011;21906;50.812;7.132;2023-12-29T00:37:11;2.33;;;1.40;;
4106;SDS011;21906;50.812;7.132;2023-12-29T00:39:36;1.50;;;1.40;;
4106;SDS011;21906;50.812;7.132;2023-12-29T00:42:05;2.17;;;1.40;;
4106;SDS011;21906;50.812;7.132;2023-12-29T00:44:33;1.93;;;1.30;;
4106;SDS011;21906;50.812;7.132;2023-12-29T00:47:00;2.27;;;1.43;;
4106;SDS011;21906;50.812;7.132;2023-12-29T00:49:26;1.50;;;1.40;;
4106;SDS011;21906;50.812;7.132;2023-12-29T00:51:51;2.07;;;1.50;;
4106;SDS011;21906;50.812;7.132;2023-12-29T00:54:18;1.70;;;1.50;;
4106;SDS011;21906;50.812;7.132;2023-12-29T00:56:50;3.77;;;1.70;;
4106;SDS011;21906;50.812;7.132;2023-12-29T00:59:18;1.87;;;1.50;;
4106;SDS011;21906;50.812;7.132;2023-12-29T01:01:45;1.60;;;1.40;;
4106;SDS011;21906;50.812;7.132;2023-12-29T01:04:10;2.00;;;1.70;;
4106;SDS011;21906;50.812;7.132;2023-12-29T01:06:36;1.90;;;1.50;;
4106;SDS011;21906;50.812;7.132;2023-12-29T01:09:02;1.93;;;1.40;;
4106;SDS011;21906;50.812;7.132;2023-12-29T01:11:28;3.40;;;1.53;;
4106;SDS011;21906;50.812;7.132;2023-12-29T01:13:53;4.23;;;1.67;;
4106;SDS011;21906;50.812;7.132;2023-12-29T01:16:19;2.37;;;2.13;;
4106;SDS011;21906;50.812;7.132;2023-12-29T01:18:45;1.93;;;1.47;;
4106;SDS011;21906;50.812;7.132;2023-12-29T01:21:11;1.70;;;1.60;;
4106;SDS011;21906;50.812;7.132;2023-12-29T01:23:36;2.00;;;1.80;;
4106;SDS011;21906;50.812;7.132;2023-12-29T01:26:02;2.40;;;1.70;;
4106;SDS011;21906;50.812;7.132;2023-12-29T01:28:28;2.60;;;1.70;;
4106;SDS011;21906;50.812;7.132;2023-12-29T01:30:53;3.63;;;1.67;;
4106;SDS011;21906;50.812;7.132;2023-12-29T01:33:19;2.50;;;1.80;;
4106;SDS011;21906;50.812;7.132;2023-12-29T01:35:46;3.30;;;2.00;;
4106;SDS011;21906;50.812;7.132;2023-12-29T01:38:12;4.77;;;1.90;;
4106;SDS011;21906;50.812;7.132;2023-12-29T01:40:44;4.30;;;1.80;;
4106;SDS011;21906;50.812;7.132;2023-12-29T01:43:10;2.80;;;1.77;;
4106;SDS011;21906;50.812;7.132;2023-12-29T01:45:36;2.27;;;1.70;;
4106;SDS011;21906;50.812;7.132;2023-12-29T01:48:01;2.17;;;2.00;;
4106;SDS011;21906;50.812;7.132;2023-12-29T01:50:27;3.80;;;1.80;;
4106;SDS011;21906;50.812;7.132;2023-12-29T01:52:54;3.47;;;2.00;;
4106;SDS011;21906;50.812;7.132;2023-12-29T01:55:22;2.47;;;2.20;;
4106;SDS011;21906;50.812;7.132;2023-12-29T01:57:48;2.87;;;2.10;;
4106;SDS011;21906;50.812;7.132;2023-12-29T02:00:16;2.90;;;1.60;;
4106;SDS011;21906;50.812;7.132;2023-12-29T02:02:43;3.10;;;1.90;;
4106;SDS011;21906;50.812;7.132;2023-12-29T02:05:12;2.33;;;1.70;;
4106;SDS011;21906;50.812;7.132;2023-12-29T02:07:41;2.60;;;1.70;;
4106;SDS011;21906;50.812;7.132;2023-12-29T02:10:07;2.30;;;2.10;;
4106;SDS011;21906;50.812;7.132;2023-12-29T02:12:36;3.17;;;1.80;;
4106;SDS011;21906;50.812;7.132;2023-12-29T02:15:02;3.40;;;1.50;;
4106;SDS011;21906;50.812;7.132;2023-12-29T02:17:31;2.60;;;1.80;;
4106;SDS011;21906;50.812;7.132;2023-12-29T02:20:05;2.90;;;1.80;;
4106;SDS011;21906;50.812;7.132;2023-12-29T02:22:32;3.53;;;1.80;;
4106;SDS011;21906;50.812;7.132;2023-12-29T02:24:57;3.10;;;1.80;;
4106;SDS011;21906;50.812;7.132;2023-12-29T02:33:01;2.40;;;2.20;;
4106;SDS011;21906;50.812;7.132;2023-12-29T02:35:31;2.10;;;1.60;;
4106;SDS011;21906;50.812;7.132;2023-12-29T02:38:01;2.13;;;1.77;;
4106;SDS011;21906;50.812;7.132;2023-12-29T02:40:27;2.20;;;1.70;;
4106;SDS011;21906;50.812;7.132;2023-12-29T02:42:53;4.97;;;1.90;;
4106;SDS011;21906;50.812;7.132;2023-12-29T02:45:18;3.23;;;1.70;;
4106;SDS011;21906;50.812;7.132;2023-12-29T02:47:44;1.60;;;1.47;;
4106;SDS011;21906;50.812;7.132;2023-12-29T02:50:10;2.80;;;1.70;;
4106;SDS011;21906;50.812;7.132;2023-12-29T02:52:36;1.80;;;1.53;;
4106;SDS011;21906;50.812;7.132;2023-12-29T02:55:02;1.60;;;1.50;;
4106;SDS011;21906;50.812;7.132;2023-12-29T02:57:28;2.13;;;1.60;;
4106;SDS011;21906;50.812;7.132;2023-12-29T02:59:54;3.20;;;1.53;;
4106;SDS011;21906;50.812;7.132;2023-12-29T03:02:21;2.50;;;1.80;;
4106;SDS011;21906;50.812;7.132;2023-12-29T03:04:47;1.57;;;1.47;;
4106;SDS011;21906;50.812;7.132;2023-12-29T03:07:12;4.43;;;2.10;;
4106;SDS011;21906;50.812;7.132;2023-12-29T03:09:38;2.00;;;1.40;;
4106;SDS011;21906;50.812;7.132;2023-12-29T03:12:04;4.70;;;2.00;;
4106;SDS011;21906;50.812;7.132;2023-12-29T03:14:30;2.00;;;1.40;;
4106;SDS011;21906;50.812;7.132;2023-12-29T03:16:56;6.60;;;1.47;;
4106;SDS011;21906;50.812;7.132;2023-12-29T03:19:22;6.03;;;1.73;;
4106;SDS011;21906;50.812;7.132;2023-12-29T03:21:48;2.97;;;1.43;;
4106;SDS011;21906;50.812;7.132;2023-12-29T03:24:13;3.43;;;1.87;;
4106;SDS011;21906;50.812;7.132;2023-12-29T03:26:39;3.73;;;1.60;;
4106;SDS011;21906;50.812;7.132;2023-12-29T03:29:05;2.23;;;1.43;;
4106;SDS011;21906;50.812;7.132;2023-12-29T03:31:30;2.63;;;1.70;;
4106;SDS011;21906;50.812;7.132;2023-12-29T03:33:56;2.33;;;1.60;;
4106;SDS011;21906;50.812;7.132;2023-12-29T03:36:22;3.63;;;1.50;;
4106;SDS011;21906;50.812;7.132;2023-12-29T03:38:47;1.77;;;1.47;;
4106;SDS011;21906;50.812;7.132;2023-12-29T03:41:13;2.83;;;1.70;;
4106;SDS011;21906;50.812;7.132;2023-12-29T03:43:39;1.90;;;1.60;;
4106;SDS011;21906;50.812;7.132;2023-12-29T03:46:14;2.80;;;2.10;;
4106;SDS011;21906;50.812;7.132;2023-12-29T03:48:41;5.43;;;1.77;;
4106;SDS011;21906;50.812;7.132;2023-12-29T03:51:07;5.43;;;2.47;;
4106;SDS011;21906;50.812;7.132;2023-12-29T03:53:32;3.97;;;1.57;;
4106;SDS011;21906;50.812;7.132;2023-12-29T03:55:58;3.40;;;1.60;;
4106;SDS011;21906;50.812;7.132;2023-12-29T03:58:23;2.37;;;1.47;;
4106;SDS011;21906;50.812;7.132;2023-12-29T04:00:49;1.70;;;1.20;;
4106;SDS011;21906;50.812;7.132;2023-12-29T04:03:14;3.80;;;1.70;;
4106;SDS011;21906;50.812;7.132;2023-12-29T04:05:40;2.13;;;1.10;;
4106;SDS011;21906;50.812;7.132;2023-12-29T04:08:06;5.30;;;1.53;;
4106;SDS011;21906;50.812;7.132;2023-12-29T04:10:31;2.40;;;1.60;;
4106;SDS011;21906;50.812;7.132;2023-12-29T04:12:57;1.83;;;1.47;;
4106;SDS011;21906;50.812;7.132;2023-12-29T04:15:22;2.50;;;1.57;;
4106;SDS011;21906;50.812;7.132;2023-12-29T04:17:48;1.63;;;1.50;;
4106;SDS011;21906;50.812;7.132;2023-12-29T04:20:14;1.97;;;1.60;;
4106;SDS011;21906;50.812;7.132;2023-12-29T04:22:39;3.27;;;1.33;;
4106;SDS011;21906;50.812;7.132;2023-12-29T04:25:05;3.07;;;1.30;;
4106;SDS011;21906;50.812;7.132;2023-12-29T04:27:31;2.20;;;1.40;;
4106;SDS011;21906;50.812;7.132;2023-12-29T04:29:56;2.03;;;1.33;;
4106;SDS011;21906;50.812;7.132;2023-12-29T04:32:22;4.60;;;1.80;;
4106;SDS011;21906;50.812;7.132;2023-12-29T04:34:47;6.87;;;1.50;;
4106;SDS011;21906;50.812;7.132;2023-12-29T04:37:13;3.90;;;1.63;;
4106;SDS011;21906;50.812;7.132;2023-12-29T04:39:38;2.80;;;1.50;;
4106;SDS011;21906;50.812;7.132;2023-12-29T04:42:04;6.87;;;1.50;;
4106;SDS011;21906;50.812;7.132;2023-12-29T04:44:30;1.87;;;1.50;;
4106;SDS011;21906;50.812;7.132;2023-12-29T04:46:55;2.13;;;1.43;;
4106;SDS011;21906;50.812;7.132;2023-12-29T04:49:21;3.60;;;1.40;;
4106;SDS011;21906;50.812;7.132;2023-12-29T04:51:47;3.47;;;1.53;;
4106;SDS011;21906;50.812;7.132;2023-12-29T04:54:13;1.80;;;1.20;;
4106;SDS011;21906;50.812;7.132;2023-12-29T04:56:39;1.40;;;1.30;;
4106;SDS011;21906;50.812;7.132;2023-12-29T04:59:05;3.13;;;1.57;;
4106;SDS011;21906;50.812;7.132;2023-12-29T05:01:30;3.40;;;1.67;;
4106;SDS011;21906;50.812;7.132;2023-12-29T05:03:56;1.60;;;1.30;;
4106;SDS011;21906;50.812;7.132;2023-12-29T05:06:21;2.90;;;1.33;;
4106;SDS011;21906;50.812;7.132;2023-12-29T05:08:47;2.40;;;1.40;;
4106;SDS011;21906;50.812;7.132;2023-12-29T05:11:13;1.60;;;1.30;;
4106;SDS011;21906;50.812;7.132;2023-12-29T05:13:38;3.23;;;1.30;;
4106;SDS011;21906;50.812;7.132;2023-12-29T05:16:04;3.10;;;1.73;;
4106;SDS011;21906;50.812;7.132;2023-12-29T05:18:30;2.10;;;1.17;;
4106;SDS011;21906;50.812;7.132;2023-12-29T05:20:56;2.10;;;1.30;;
4106;SDS011;21906;50.812;7.132;2023-12-29T05:23:21;5.20;;;1.40;;
4106;SDS011;21906;50.812;7.132;2023-12-29T05:25:47;2.33;;;1.27;;
4106;SDS011;21906;50.812;7.132;2023-12-29T05:28:12;3.90;;;1.50;;
4106;SDS011;21906;50.812;7.132;2023-12-29T05:30:38;1.97;;;1.23;;
4106;SDS011;21906;50.812;7.132;2023-12-29T05:33:04;4.53;;;2.30;;
4106;SDS011;21906;50.812;7.132;2023-12-29T05:35:30;2.60;;;1.37;;
4106;SDS011;21906;50.812;7.132;2023-12-29T05:37:55;1.93;;;1.10;;
4106;SDS011;21906;50.812;7.132;2023-12-29T05:40:21;2.90;;;1.40;;
4106;SDS011;21906;50.812;7.132;2023-12-29T05:42:46;4.50;;;1.60;;
4106;SDS011;21906;50.812;7.132;2023-12-29T05:45:12;2.70;;;1.30;;
4106;SDS011;21906;50.812;7.132;2023-12-29T05:47:40;2.60;;;1.87;;
4106;SDS011;21906;50.812;7.132;2023-12-29T05:50:06;2.17;;;1.40;;
4106;SDS011;21906;50.812;7.132;2023-12-29T05:52:32;1.70;;;1.23;;
4106;SDS011;21906;50.812;7.132;2023-12-29T05:54:57;1.53;;;1.10;;
4106;SDS011;21906;50.812;7.132;2023-12-29T05:57:23;2.30;;;1.30;;
4106;SDS011;21906;50.812;7.132;2023-12-29T05:59:48;2.57;;;1.30;;
4106;SDS011;21906;50.812;7.132;2023-12-29T06:02:14;3.17;;;1.37;;
4106;SDS011;21906;50.812;7.132;2023-12-29T06:04:40;2.23;;;1.43;;
4106;SDS011;21906;50.812;7.132;2023-12-29T06:07:05;2.53;;;1.30;;
4106;SDS011;21906;50.812;7.132;2023-12-29T06:09:31;3.00;;;1.60;;
4106;SDS011;21906;50.812;7.132;2023-12-29T06:11:57;2.83;;;1.37;;
4106;SDS011;21906;50.812;7.132;2023-12-29T06:14:22;3.03;;;1.30;;
4106;SDS011;21906;50.812;7.132;2023-12-29T06:16:48;2.17;;;1.60;;
4106;SDS011;21906;50.812;7.132;2023-12-29T06:19:13;3.13;;;1.33;;
4106;SDS011;21906;50.812;7.132;2023-12-29T06:21:42;2.30;;;1.20;;
4106;SDS011;21906;50.812;7.132;2023-12-29T06:24:08;3.67;;;1.50;;
4106;SDS011;21906;50.812;7.132;2023-12-29T06:26:34;1.97;;;1.40;;
4106;SDS011;21906;50.812;7.132;2023-12-29T06:29:00;1.90;;;1.20;;
4106;SDS011;21906;50.812;7.132;2023-12-29T06:31:26;2.27;;;1.50;;
4106;SDS011;21906;50.812;7.132;2023-12-29T06:33:51;3.70;;;1.60;;
4106;SDS011;21906;50.812;7.132;2023-12-29T06:36:17;1.50;;;1.30;;
4106;SDS011;21906;50.812;7.132;2023-12-29T06:38:43;1.50;;;1.10;;
4106;SDS011;21906;50.812;7.132;2023-12-29T06:41:13;2.60;;;1.00;;
4106;SDS011;21906;50.812;7.132;2023-12-29T06:43:39;1.70;;;1.50;;
4106;SDS011;21906;50.812;7.132;2023-12-29T06:46:05;3.30;;;1.20;;
4106;SDS011;21906;50.812;7.132;2023-12-29T06:48:31;2.50;;;1.40;;
4106;SDS011;21906;50.812;7.132;2023-12-29T06:50:56;2.50;;;1.47;;
4106;SDS011;21906;50.812;7.132;2023-12-29T06:53:22;2.50;;;1.00;;
4106;SDS011;21906;50.812;7.132;2023-12-29T06:55:48;2.07;;;1.03;;
4106;SDS011;21906;50.812;7.132;2023-12-29T06:58:13;2.50;;;1.20;;
4106;SDS011;21906;50.812;7.132;2023-12-29T07:00:39;1.67;;;1.50;;
4106;SDS011;21906;50.812;7.132;2023-12-29T07:03:05;3.67;;;1.37;;
4106;SDS011;21906;50.812;7.132;2023-12-29T07:05:30;2.10;;;1.10;;
4106;SDS011;21906;50.812;7.132;2023-12-29T07:07:57;1.80;;;1.00;;
4106;SDS011;21906;50.812;7.132;2023-12-29T07:10:23;3.30;;;1.20;;
4106;SDS011;21906;50.812;7.132;2023-12-29T07:12:48;2.90;;;1.27;;
4106;SDS011;21906;50.812;7.132;2023-12-29T07:15:14;3.60;;;1.50;;
4106;SDS011;21906;50.812;7.132;2023-12-29T07:17:40;2.13;;;1.10;;
4106;SDS011;21906;50.812;7.132;2023-12-29T07:20:07;5.60;;;1.60;;
4106;SDS011;21906;50.812;7.132;2023-12-29T07:22:33;1.80;;;1.50;;
4106;SDS011;21906;50.812;7.132;2023-12-29T07:24:59;2.60;;;1.17;;
4106;SDS011;21906;50.812;7.132;2023-12-29T07:27:24;1.07;;;0.93;;
4106;SDS011;21906;50.812;7.132;2023-12-29T07:29:50;1.67;;;1.13;;
4106;SDS011;21906;50.812;7.132;2023-12-29T07:32:15;1.70;;;1.10;;
4106;SDS011;21906;50.812;7.132;2023-12-29T07:34:41;1.67;;;1.20;;
4106;SDS011;21906;50.812;7.132;2023-12-29T07:37:07;2.07;;;1.20;;
4106;SDS011;21906;50.812;7.132;2023-12-29T07:39:35;6.30;;;1.30;;
4106;SDS011;21906;50.812;7.132;2023-12-29T07:42:01;2.43;;;1.10;;
4106;SDS011;21906;50.812;7.132;2023-12-29T07:44:27;4.70;;;1.30;;
4106;SDS011;21906;50.812;7.132;2023-12-29T07:46:52;3.70;;;1.20;;
4106;SDS011;21906;50.812;7.132;2023-12-29T07:49:18;3.40;;;1.43;;
4106;SDS011;21906;50.812;7.132;2023-12-29T07:51:44;1.80;;;1.00;;
4106;SDS011;21906;50.812;7.132;2023-12-29T07:54:11;1.60;;;1.20;;
4106;SDS011;21906;50.812;7.132;2023-12-29T07:56:37;3.23;;;1.50;;
4106;SDS011;21906;50.812;7.132;2023-12-29T07:59:03;4.63;;;1.10;;
4106;SDS011;21906;50.812;7.132;2023-12-29T08:01:29;1.97;;;1.27;;
4106;SDS011;21906;50.812;7.132;2023-12-29T08:03:54;2.20;;;1.17;;
4106;SDS011;21906;50.812;7.132;2023-12-29T08:06:20;1.67;;;1.30;;
4106;SDS011;21906;50.812;7.132;2023-12-29T08:08:46;1.67;;;1.10;;
4106;SDS011;21906;50.812;7.132;2023-12-29T08:11:17;1.73;;;1.00;;
4106;SDS011;21906;50.812;7.132;2023-12-29T08:13:43;1.97;;;1.43;;
4106;SDS011;21906;50.812;7.132;2023-12-29T08:16:10;1.57;;;1.07;;
4106;SDS011;21906;50.812;7.132;2023-12-29T08:18:36;1.40;;;1.10;;
4106;SDS011;21906;50.812;7.132;2023-12-29T08:21:02;3.90;;;1.20;;
4106;SDS011;21906;50.812;7.132;2023-12-29T08:23:27;1.37;;;1.27;;
4106;SDS011;21906;50.812;7.132;2023-12-29T08:25:53;1.40;;;1.30;;
4106;SDS011;21906;50.812;7.132;2023-12-29T08:28:22;1.30;;;1.03;;
4106;SDS011;21906;50.812;7.132;2023-12-29T08:30:47;1.60;;;0.90;;
4106;SDS011;21906;50.812;7.132;2023-12-29T08:33:13;2.07;;;1.30;;
4106;SDS011;21906;50.812;7.132;2023-12-29T08:35:39;1.73;;;1.03;;
4106;SDS011;21906;50.812;7.132;2023-12-29T08:38:06;1.30;;;0.90;;
4106;SDS011;21906;50.812;7.132;2023-12-29T08:40:31;1.60;;;1.10;;
4106;SDS011;21906;50.812;7.132;2023-12-29T08:42:57;3.33;;;1.00;;
4106;SDS011;21906;50.812;7.132;2023-12-29T08:45:23;1.37;;;1.20;;
4106;SDS011;21906;50.812;7.132;2023-12-29T08:47:49;1.70;;;1.07;;
4106;SDS011;21906;50.812;7.132;2023-12-29T08:50:14;2.20;;;1.10;;
4106;SDS011;21906;50.812;7.132;2023-12-29T08:52:40;1.20;;;1.10;;
4106;SDS011;21906;50.812;7.132;2023-12-29T08:55:06;1.80;;;1.17;;
4106;SDS011;21906;50.812;7.132;2023-12-29T08:57:33;2.10;;;1.23;;
4106;SDS011;21906;50.812;7.132;2023-12-29T08:59:59;1.30;;;1.13;;
4106;SDS011;21906;50.812;7.132;2023-12-29T09:02:24;2.20;;;1.40;;
4106;SDS011;21906;50.812;7.132;2023-12-29T09:04:50;2.20;;;1.10;;
4106;SDS011;21906;50.812;7.132;2023-12-29T09:07:16;3.53;;;1.10;;
4106;SDS011;21906;50.812;7.132;2023-12-29T09:09:42;1.03;;;0.93;;
4106;SDS011;21906;50.812;7.132;2023-12-29T09:12:07;3.33;;;1.20;;
4106;SDS011;21906;50.812;7.132;2023-12-29T09:14:33;1.87;;;1.20;;
4106;SDS011;21906;50.812;7.132;2023-12-29T09:16:59;1.23;;;1.10;;
4106;SDS011;21906;50.812;7.132;2023-12-29T09:19:25;1.20;;;1.10;;
4106;SDS011;21906;50.812;7.132;2023-12-29T09:21:51;2.23;;;1.10;;
4106;SDS011;21906;50.812;7.132;2023-12-29T09:24:17;2.83;;;1.10;;
4106;SDS011;21906;50.812;7.132;2023-12-29T09:26:42;1.47;;;1.20;;
4106;SDS011;21906;50.812;7.132;2023-12-29T09:29:08;1.90;;;1.10;;
4106;SDS011;21906;50.812;7.132;2023-12-29T09:31:34;3.03;;;1.20;;
4106;SDS011;21906;50.812;7.132;2023-12-29T09:34:01;1.17;;;0.93;;
4106;SDS011;21906;50.812;7.132;2023-12-29T09:36:27;1.10;;;0.97;;
4106;SDS011;21906;50.812;7.132;2023-12-29T09:38:52;2.70;;;1.23;;
4106;SDS011;21906;50.812;7.132;2023-12-29T09:41:18;5.20;;;1.13;;
4106;SDS011;21906;50.812;7.132;2023-12-29T09:43:46;2.40;;;1.10;;
4106;SDS011;21906;50.812;7.132;2023-12-29T09:46:16;2.67;;;0.90;;
4106;SDS011;21906;50.812;7.132;2023-12-29T09:48:45;2.03;;;0.90;;
4106;SDS011;21906;50.812;7.132;2023-12-29T09:51:12;1.10;;;0.80;;
4106;SDS011;21906;50.812;7.132;2023-12-29T09:53:40;1.40;;;0.87;;
4106;SDS011;21906;50.812;7.132;2023-12-29T09:56:07;1.27;;;0.90;;
4106;SDS011;21906;50.812;7.132;2023-12-29T09:58:34;1.70;;;0.80;;
4106;SDS011;21906;50.812;7.132;2023-12-29T10:01:03;0.90;;;0.70;;
4106;SDS011;21906;50.812;7.132;2023-12-29T10:03:32;1.00;;;0.80;;
4106;SDS011;21906;50.812;7.132;2023-12-29T10:06:00;1.03;;;0.80;;
4106;SDS011;21906;50.812;7.132;2023-12-29T10:08:28;1.70;;;0.90;;
4106;SDS011;21906;50.812;7.132;2023-12-29T10:10:58;1.60;;;1.00;;
4106;SDS011;21906;50.812;7.132;2023-12-29T10:13:26;0.93;;;0.70;;
4106;SDS011;21906;50.812;7.132;2023-12-29T10:16:08;0.80;;;0.80;;
4106;SDS011;21906;50.812;7.132;2023-12-29T10:21:39;2.00;;;0.80;;
4106;SDS011;21906;50.812;7.132;2023-12-29T10:24:17;1.17;;;0.87;;
4106;SDS011;21906;50.812;7.132;2023-12-29T10:26:45;1.10;;;0.90;;
4106;SDS011;21906;50.812;7.132;2023-12-29T10:29:12;1.17;;;0.77;;
4106;SDS011;21906;50.812;7.132;2023-12-29T10:31:38;1.63;;;0.70;;
4106;SDS011;21906;50.812;7.132;2023-12-29T10:34:19;1.10;;;0.90;;
4106;SDS011;21906;50.812;7.132;2023-12-29T10:36:53;1.47;;;0.80;;
4106;SDS011;21906;50.812;7.132;2023-12-29T10:39:20;1.10;;;0.67;;
4106;SDS011;21906;50.812;7.132;2023-12-29T10:41:45;1.00;;;0.67;;
4106;SDS011;21906;50.812;7.132;2023-12-29T10:44:11;1.20;;;0.90;;
4106;SDS011;21906;50.812;7.132;2023-12-29T10:46:37;2.03;;;0.87;;
4106;SDS011;21906;50.812;7.132;2023-12-29T10:49:09;0.90;;;0.70;;
4106;SDS011;21906;50.812;7.132;2023-12-29T10:51:36;1.33;;;0.80;;
4106;SDS011;21906;50.812;7.132;2023-12-29T10:54:02;0.90;;;0.60;;
4106;SDS011;21906;50.812;7.132;2023-12-29T10:56:28;1.50;;;0.80;;
4106;SDS011;21906;50.812;7.132;2023-12-29T10:59:04;1.17;;;0.80;;
4106;SDS011;21906;50.812;7.132;2023-12-29T11:01:34;1.47;;;0.80;;
4106;SDS011;21906;50.812;7.132;2023-12-29T11:04:06;0.90;;;0.80;;
4106;SDS011;21906;50.812;7.132;2023-12-29T11:06:41;0.83;;;0.60;;
4106;SDS011;21906;50.812;7.132;2023-12-29T11:09:10;1.17;;;0.90;;
4106;SDS011;21906;50.812;7.132;2023-12-29T11:11:37;0.80;;;0.60;;
4106;SDS011;21906;50.812;7.132;2023-12-29T11:14:03;1.53;;;0.70;;
4106;SDS011;21906;50.812;7.132;2023-12-29T11:16:30;2.03;;;0.70;;
4106;SDS011;21906;50.812;7.132;2023-12-29T11:18:57;4.60;;;0.80;;
4106;SDS011;21906;50.812;7.132;2023-12-29T11:21:24;0.80;;;0.60;;
4106;SDS011;21906;50.812;7.132;2023-12-29T11:23:51;0.93;;;0.63;;
4106;SDS011;21906;50.812;7.132;2023-12-29T11:26:18;0.90;;;0.70;;
4106;SDS011;21906;50.812;7.132;2023-12-29T11:28:47;1.00;;;0.70;;
4106;SDS011;21906;50.812;7.132;2023-12-29T11:31:16;1.70;;;0.70;;
4106;SDS011;21906;50.812;7.132;2023-12-29T11:33:44;0.90;;;0.70;;
4106;SDS011;21906;50.812;7.132;2023-12-29T11:36:22;0.70;;;0.60;;
4106;SDS011;21906;50.812;7.132;2023-12-29T11:39:11;0.90;;;0.60;;
4106;SDS011;21906;50.812;7.132;2023-12-29T11:44:24;0.80;;;0.50;;
4106;SDS011;21906;50.812;7.132;2023-12-29T11:46:53;1.23;;;0.70;;
4106;SDS011;21906;50.812;7.132;2023-12-29T11:49:19;0.90;;;0.63;;
4106;SDS011;21906;50.812;7.132;2023-12-29T11:51:46;0.83;;;0.50;;
4106;SDS011;21906;50.812;7.132;2023-12-29T11:54:25;0.73;;;0.57;;
4106;SDS011;21906;50.812;7.132;2023-12-29T11:56:52;1.63;;;0.60;;
4106;SDS011;21906;50.812;7.132;2023-12-29T11:59:19;1.57;;;0.70;;
4106;SDS011;21906;50.812;7.132;2023-12-29T12:01:47;0.90;;;0.80;;
4106;SDS011;21906;50.812;7.132;2023-12-29T12:04:36;0.90;;;0.60;;
4106;SDS011;21906;50.812;7.132;2023-12-29T12:07:04;1.13;;;0.70;;
4106;SDS011;21906;50.812;7.132;2023-12-29T12:09:32;0.80;;;0.60;;
4106;SDS011;21906;50.812;7.132;2023-12-29T12:12:00;0.70;;;0.50;;
4106;SDS011;21906;50.812;7.132;2023-12-29T12:14:43;0.80;;;0.63;;
4106;SDS011;21906;50.812;7.132;2023-12-29T12:17:09;0.70;;;0.70;;
4106;SDS011;21906;50.812;7.132;2023-12-29T12:19:36;1.23;;;0.57;;
4106;SDS011;21906;50.812;7.132;2023-12-29T12:22:01;1.10;;;0.77;;
4106;SDS011;21906;50.812;7.132;2023-12-29T12:24:28;0.90;;;0.60;;
4106;SDS011;21906;50.812;7.132;2023-12-29T12:26:54;0.80;;;0.67;;
4106;SDS011;21906;50.812;7.132;2023-12-29T12:29:20;3.00;;;0.70;;
4106;SDS011;21906;50.812;7.132;2023-12-29T12:31:55;0.80;;;0.50;;
4106;SDS011;21906;50.812;7.132;2023-12-29T12:34:22;0.90;;;0.63;;
4106;SDS011;21906;50.812;7.132;2023-12-29T12:36:52;0.80;;;0.60;;
4106;SDS011;21906;50.812;7.132;2023-12-29T12:39:18;1.30;;;0.60;;
4106;SDS011;21906;50.812;7.132;2023-12-29T12:41:44;0.80;;;0.50;;
4106;SDS011;21906;50.812;7.132;2023-12-29T12:46:55;1.00;;;0.70;;
4106;SDS011;21906;50.812;7.132;2023-12-29T12:49:24;0.87;;;0.70;;
4106;SDS011;21906;50.812;7.132;2023-12-29T12:51:50;1.13;;;0.60;;
4106;SDS011;21906;50.812;7.132;2023-12-29T12:54:18;0.90;;;0.70;;
4106;SDS011;21906;50.812;7.132;2023-12-29T12:56:45;0.83;;;0.60;;
4106;SDS011;21906;50.812;7.132;2023-12-29T12:59:11;1.27;;;0.80;;
4106;SDS011;21906;50.812;7.132;2023-12-29T13:01:38;0.90;;;0.50;;
4106;SDS011;21906;50.812;7.132;2023-12-29T13:04:05;1.00;;;0.60;;
4106;SDS011;21906;50.812;7.132;2023-12-29T13:06:34;0.70;;;0.50;;
4106;SDS011;21906;50.812;7.132;2023-12-29T13:09:06;0.70;;;0.60;;
4106;SDS011;21906;50.812;7.132;2023-12-29T13:11:42;1.10;;;0.60;;
4106;SDS011;21906;50.812;7.132;2023-12-29T13:14:08;0.70;;;0.47;;
4106;SDS011;21906;50.812;7.132;2023-12-29T13:16:34;2.30;;;0.60;;
4106;SDS011;21906;50.812;7.132;2023-12-29T13:19:16;0.80;;;0.63;;
4106;SDS011;21906;50.812;7.132;2023-12-29T13:21:55;0.70;;;0.60;;
4106;SDS011;21906;50.812;7.132;2023-12-29T13:24:22;0.80;;;0.60;;
4106;SDS011;21906;50.812;7.132;2023-12-29T13:26:50;1.00;;;0.63;;
4106;SDS011;21906;50.812;7.132;2023-12-29T13:29:21;0.90;;;0.60;;
4106;SDS011;21906;50.812;7.132;2023-12-29T13:31:54;1.17;;;0.90;;
4106;SDS011;21906;50.812;7.132;2023-12-29T13:37:25;1.97;;;0.80;;
4106;SDS011;21906;50.812;7.132;2023-12-29T13:42:42;0.80;;;0.60;;
4106;SDS011;21906;50.812;7.132;2023-12-29T13:45:11;0.80;;;0.60;;
4106;SDS011;21906;50.812;7.132;2023-12-29T13:47:37;0.70;;;0.53;;
4106;SDS011;21906;50.812;7.132;2023-12-29T13:50:04;0.80;;;0.70;;
4106;SDS011;21906;50.812;7.132;2023-12-29T13:52:30;0.80;;;0.70;;
4106;SDS011;21906;50.812;7.132;2023-12-29T13:54:57;0.80;;;0.50;;
4106;SDS011;21906;50.812;7.132;2023-12-29T13:57:30;0.80;;;0.60;;
4106;SDS011;21906;50.812;7.132;2023-12-29T13:59:57;1.83;;;0.90;;
4106;SDS011;21906;50.812;7.132;2023-12-29T14:02:32;0.80;;;0.70;;
4106;SDS011;21906;50.812;7.132;2023-12-29T14:05:19;0.90;;;0.70;;
4106;SDS011;21906;50.812;7.132;2023-12-29T14:10:29;1.00;;;0.70;;
4106;SDS011;21906;50.812;7.132;2023-12-29T14:13:06;0.90;;;0.80;;
4106;SDS011;21906;50.812;7.132;2023-12-29T14:15:41;0.80;;;0.60;;
4106;SDS011;21906;50.812;7.132;2023-12-29T14:20:57;1.70;;;0.77;;
4106;SDS011;21906;50.812;7.132;2023-12-29T14:23:23;1.00;;;0.83;;
4106;SDS011;21906;50.812;7.132;2023-12-29T14:25:49;1.00;;;0.67;;
4106;SDS011;21906;50.812;7.132;2023-12-29T14:28:15;1.00;;;0.80;;
4106;SDS011;21906;50.812;7.132;2023-12-29T14:30:43;1.30;;;0.60;;
4106;SDS011;21906;50.812;7.132;2023-12-29T14:33:09;1.23;;;0.80;;
4106;SDS011;21906;50.812;7.132;2023-12-29T14:35:34;0.90;;;0.63;;
4106;SDS011;21906;50.812;7.132;2023-12-29T14:38:00;1.10;;;0.80;;
4106;SDS011;21906;50.812;7.132;2023-12-29T14:40:26;1.00;;;0.80;;
4106;SDS011;21906;50.812;7.132;2023-12-29T14:42:52;0.90;;;0.80;;
4106;SDS011;21906;50.812;7.132;2023-12-29T14:45:18;1.07;;;0.80;;
4106;SDS011;21906;50.812;7.132;2023-12-29T14:47:44;1.77;;;0.90;;
4106;SDS011;21906;50.812;7.132;2023-12-29T14:50:11;0.90;;;0.80;;
4106;SDS011;21906;50.812;7.132;2023-12-29T14:52:37;1.00;;;0.70;;
4106;SDS011;21906;50.812;7.132;2023-12-29T14:55:03;0.90;;;0.70;;
4106;SDS011;21906;50.812;7.132;2023-12-29T14:57:29;1.00;;;0.90;;
4106;SDS011;21906;50.812;7.132;2023-12-29T14:59:55;1.10;;;1.00;;
4106;SDS011;21906;50.812;7.132;2023-12-29T15:02:20;1.00;;;0.90;;
4106;SDS011;21906;50.812;7.132;2023-12-29T15:04:46;0.90;;;0.70;;
4106;SDS011;21906;50.812;7.132;2023-12-29T15:07:14;1.00;;;0.80;;
4106;SDS011;21906;50.812;7.132;2023-12-29T15:09:40;0.80;;;0.73;;
4106;SDS011;21906;50.812;7.132;2023-12-29T15:12:06;1.00;;;0.90;;
4106;SDS011;21906;50.812;7.132;2023-12-29T15:14:32;1.10;;;0.90;;
4106;SDS011;21906;50.812;7.132;2023-12-29T15:16:57;1.00;;;0.70;;
4106;SDS011;21906;50.812;7.132;2023-12-29T15:19:23;1.50;;;0.70;;
4106;SDS011;21906;50.812;7.132;2023-12-29T15:21:49;0.90;;;0.60;;
4106;SDS011;21906;50.812;7.132;2023-12-29T15:24:18;0.90;;;0.80;;